Time;durP1;ratioP1;P1;durP2;ratioP2;P2;SDS_P1;SDS_P2;PMS_P1;PMS_P2;Temp;Humidity;BMP_temperature;BMP_pressure;BME280_temperature;BME280_humidity;BME280_pressure;Samples;Min_cycle;Max_cycle;Signal;HPM_P1;HPM_P2
2022/12/20 00:00:55;;;;;;;8.43;2.75;;;;;;;;;;4989748;28;20157;-43
2022/12/20 00:03:20;;;;;;;6.13;3.22;;;;;;;;;;4986662;28;20042;-43
2022/12/20 00:05:46;;;;;;;7.90;2.90;;;;;;;;;;4990553;28;20049;-44
2022/12/20 00:08:12;;;;;;;5.72;2.50;;;;;;;;;;4983406;28;20046;-43
2022/12/20 00:10:42;;;;;;;8.40;3.47;;;;;;;;;;4989812;28;20101;-45
2022/12/20 00:13:08;;;;;;;5.15;3.05;;;;;;;;;;4984489;28;20077;-43
2022/12/20 00:15:34;;;;;;;5.78;3.20;;;;;;;;;;4987510;28;20038;-43
2022/12/20 00:18:00;;;;;;;2.70;2.40;;;;;;;;;;4984999;28;20042;-43
2022/12/20 00:20:27;;;;;;;5.53;3.22;;;;;;;;;;4986373;28;20080;-44
2022/12/20 00:22:52;;;;;;;6.80;2.80;;;;;;;;;;4983842;28;20510;-43
2022/12/20 00:25:19;;;;;;;6.15;2.97;;;;;;;;;;4984120;28;20027;-43
2022/12/20 00:27:45;;;;;;;8.48;3.35;;;;;;;;;;4985974;28;20050;-45
2022/12/20 00:30:11;;;;;;;4.93;3.17;;;;;;;;;;4987392;28;20022;-43
2022/12/20 00:32:36;;;;;;;6.22;3.40;;;;;;;;;;4986163;28;20410;-44
2022/12/20 00:35:02;;;;;;;4.25;3.20;;;;;;;;;;4988711;28;20018;-43
2022/12/20 00:37:28;;;;;;;6.28;3.15;;;;;;;;;;4985980;28;20038;-43
2022/12/20 00:39:53;;;;;;;6.45;3.25;;;;;;;;;;4986808;28;20019;-43
2022/12/20 00:42:18;;;;;;;4.30;3.08;;;;;;;;;;4984872;28;20109;-43
2022/12/20 00:44:44;;;;;;;4.80;3.10;;;;;;;;;;4989454;28;20026;-43
2022/12/20 00:47:09;;;;;;;6.35;3.08;;;;;;;;;;4987494;28;20592;-44
2022/12/20 00:49:34;;;;;;;3.92;3.13;;;;;;;;;;4988575;28;20026;-43
2022/12/20 00:52:00;;;;;;;3.13;2.75;;;;;;;;;;4989490;28;20046;-44
2022/12/20 00:54:25;;;;;;;6.65;2.92;;;;;;;;;;4989467;28;20056;-44
2022/12/20 00:56:50;;;;;;;5.82;3.05;;;;;;;;;;4985691;28;20047;-48
2022/12/20 00:59:16;;;;;;;4.78;3.30;;;;;;;;;;4988000;28;20420;-43
2022/12/20 01:01:41;;;;;;;6.90;3.33;;;;;;;;;;4985075;28;20034;-42
2022/12/20 01:04:07;;;;;;;6.60;3.30;;;;;;;;;;4987387;28;20025;-43
2022/12/20 01:06:33;;;;;;;5.93;2.92;;;;;;;;;;4984085;28;20503;-43
2022/12/20 01:08:58;;;;;;;3.58;2.92;;;;;;;;;;4984011;28;20353;-46
2022/12/20 01:11:33;;;;;;;7.28;3.00;;;;;;;;;;4989434;28;20423;-43
2022/12/20 01:14:02;;;;;;;6.38;2.65;;;;;;;;;;4981292;28;20101;-45
2022/12/20 01:16:36;;;;;;;4.32;3.10;;;;;;;;;;4986181;28;20097;-44
2022/12/20 01:19:02;;;;;;;7.45;3.08;;;;;;;;;;4988527;28;20018;-44
2022/12/20 01:21:28;;;;;;;6.70;3.10;;;;;;;;;;4984173;28;20034;-41
2022/12/20 01:23:54;;;;;;;5.30;3.15;;;;;;;;;;4988064;28;20088;-43
2022/12/20 01:26:21;;;;;;;10.38;2.83;;;;;;;;;;4985802;28;20388;-43
2022/12/20 01:28:50;;;;;;;5.75;3.00;;;;;;;;;;4987111;28;20042;-44
2022/12/20 01:31:17;;;;;;;4.60;2.78;;;;;;;;;;4986271;28;20489;-43
2022/12/20 01:33:45;;;;;;;5.95;2.90;;;;;;;;;;4988240;28;20048;-43
2022/12/20 01:36:15;;;;;;;5.40;3.03;;;;;;;;;;4990774;28;20065;-45
2022/12/20 01:38:41;;;;;;;5.05;2.60;;;;;;;;;;4990611;28;20742;-44
2022/12/20 01:41:06;;;;;;;4.07;2.83;;;;;;;;;;4990856;28;20022;-46
2022/12/20 01:43:52;;;;;;;3.25;2.95;;;;;;;;;;4990891;28;20177;-45
2022/12/20 01:46:18;;;;;;;4.00;2.70;;;;;;;;;;4991083;28;20046;-44
2022/12/20 01:48:52;;;;;;;3.97;2.70;;;;;;;;;;4992448;28;20415;-44
2022/12/20 01:51:18;;;;;;;3.03;2.50;;;;;;;;;;4990764;28;20022;-45
2022/12/20 01:53:44;;;;;;;6.10;2.60;;;;;;;;;;4987341;28;20510;-46
2022/12/20 01:56:10;;;;;;;6.40;2.92;;;;;;;;;;4991070;28;20034;-44
2022/12/20 01:58:38;;;;;;;6.95;3.15;;;;;;;;;;4987914;28;20045;-44
2022/12/20 02:01:03;;;;;;;3.80;2.90;;;;;;;;;;4991661;28;20036;-46
2022/12/20 02:03:30;;;;;;;3.42;2.65;;;;;;;;;;4990340;28;20054;-44
2022/12/20 02:05:56;;;;;;;7.72;2.90;;;;;;;;;;4988033;28;20471;-43
2022/12/20 02:08:21;;;;;;;7.32;3.10;;;;;;;;;;4982467;28;20042;-45
2022/12/20 02:10:59;;;;;;;5.40;3.00;;;;;;;;;;4969225;28;20031;-43
2022/12/20 02:13:42;;;;;;;3.78;2.63;;;;;;;;;;4986456;28;20050;-43
2022/12/20 02:16:09;;;;;;;9.13;3.25;;;;;;;;;;4985177;28;20034;-43
2022/12/20 02:18:48;;;;;;;7.20;3.00;;;;;;;;;;4988897;28;20045;-44
2022/12/20 02:21:43;;;;;;;10.27;2.83;;;;;;;;;;4990190;28;20084;-43
2022/12/20 02:24:40;;;;;;;5.25;2.83;;;;;;;;;;4987949;28;20041;-44
2022/12/20 02:27:27;;;;;;;5.25;2.92;;;;;;;;;;4988394;28;20553;-43
2022/12/20 02:30:20;;;;;;;7.22;2.95;;;;;;;;;;4993161;28;20038;-43
2022/12/20 02:32:53;;;;;;;7.05;2.60;;;;;;;;;;4989358;28;20088;-42
2022/12/20 02:35:24;;;;;;;4.47;3.00;;;;;;;;;;4989692;28;20030;-37
2022/12/20 02:37:52;;;;;;;5.53;2.60;;;;;;;;;;4988220;28;20046;-43
2022/12/20 02:40:24;;;;;;;6.57;2.53;;;;;;;;;;4985956;28;20037;-44
2022/12/20 02:42:56;;;;;;;6.85;2.60;;;;;;;;;;4987068;28;20141;-43
2022/12/20 02:45:27;;;;;;;5.13;2.42;;;;;;;;;;4988796;28;20057;-44
2022/12/20 02:48:18;;;;;;;3.90;2.75;;;;;;;;;;4987158;28;20046;-43
2022/12/20 02:50:48;;;;;;;6.03;3.30;;;;;;;;;;4986703;28;20444;-43
2022/12/20 02:53:14;;;;;;;3.53;2.55;;;;;;;;;;4986282;28;20529;-45
2022/12/20 02:56:00;;;;;;;4.80;2.58;;;;;;;;;;4989343;28;20059;-43
2022/12/20 02:58:39;;;;;;;4.25;2.60;;;;;;;;;;5004919;28;20038;-44
2022/12/20 03:01:13;;;;;;;5.50;2.70;;;;;;;;;;4988016;28;20034;-43
2022/12/20 03:03:39;;;;;;;4.60;2.58;;;;;;;;;;4981978;28;20044;-45
2022/12/20 03:06:05;;;;;;;6.05;2.53;;;;;;;;;;4990345;28;20081;-42
2022/12/20 03:08:31;;;;;;;5.88;2.53;;;;;;;;;;4987158;28;20046;-43
2022/12/20 03:10:56;;;;;;;4.80;2.75;;;;;;;;;;4983790;28;20445;-44
2022/12/20 03:13:23;;;;;;;3.75;2.55;;;;;;;;;;4988573;28;20035;-43
2022/12/20 03:15:48;;;;;;;2.85;2.60;;;;;;;;;;4990336;28;20052;-42
2022/12/20 03:18:14;;;;;;;4.50;2.60;;;;;;;;;;4989542;28;20499;-43
2022/12/20 03:20:40;;;;;;;4.20;2.50;;;;;;;;;;4990548;28;20030;-43
2022/12/20 03:23:06;;;;;;;8.57;2.88;;;;;;;;;;4986984;28;20546;-43
2022/12/20 03:25:32;;;;;;;5.15;2.50;;;;;;;;;;4990031;28;20037;-44
2022/12/20 03:27:57;;;;;;;4.28;2.85;;;;;;;;;;4983599;28;20058;-44
2022/12/20 03:30:23;;;;;;;5.30;2.90;;;;;;;;;;4984605;28;20073;-44
2022/12/20 03:32:48;;;;;;;4.82;2.80;;;;;;;;;;4989724;28;20398;-43
2022/12/20 03:35:14;;;;;;;3.53;3.03;;;;;;;;;;4989866;28;20034;-43
2022/12/20 03:37:39;;;;;;;5.45;2.55;;;;;;;;;;5007172;28;20073;-43
2022/12/20 03:40:05;;;;;;;6.65;2.80;;;;;;;;;;4989245;28;20022;-43
2022/12/20 03:42:31;;;;;;;5.93;2.55;;;;;;;;;;4989109;28;20042;-44
2022/12/20 03:44:56;;;;;;;8.48;2.60;;;;;;;;;;4983841;28;20026;-43
2022/12/20 03:47:22;;;;;;;5.97;2.60;;;;;;;;;;4988853;28;20050;-43
2022/12/20 03:49:47;;;;;;;2.97;2.15;;;;;;;;;;4986506;28;20023;-44
2022/12/20 03:52:13;;;;;;;5.00;2.90;;;;;;;;;;4985172;28;20066;-46
2022/12/20 03:54:39;;;;;;;4.90;2.53;;;;;;;;;;4986020;28;20118;-44
2022/12/20 03:57:04;;;;;;;6.43;2.72;;;;;;;;;;4985754;28;20054;-44
2022/12/20 03:59:30;;;;;;;6.05;2.70;;;;;;;;;;4986658;28;20037;-44
2022/12/20 04:01:55;;;;;;;8.77;2.72;;;;;;;;;;4985916;28;20479;-44
2022/12/20 04:04:21;;;;;;;3.05;2.55;;;;;;;;;;4985042;28;20422;-44
2022/12/20 04:06:47;;;;;;;7.32;2.63;;;;;;;;;;4986009;28;20046;-44
2022/12/20 04:09:12;;;;;;;5.40;2.28;;;;;;;;;;4988989;28;20030;-44
2022/12/20 04:11:38;;;;;;;3.05;2.50;;;;;;;;;;4991556;28;20165;-44
2022/12/20 04:14:04;;;;;;;3.97;2.50;;;;;;;;;;4986316;28;20037;-45
2022/12/20 04:16:30;;;;;;;5.00;2.90;;;;;;;;;;4988122;28;20042;-44
2022/12/20 04:18:56;;;;;;;5.82;2.33;;;;;;;;;;4988498;28;20041;-44
2022/12/20 04:21:29;;;;;;;2.67;2.28;;;;;;;;;;4988503;28;20037;-44
2022/12/20 04:23:56;;;;;;;5.00;2.40;;;;;;;;;;4987319;28;20500;-44
2022/12/20 04:26:22;;;;;;;7.72;2.80;;;;;;;;;;4984679;28;20057;-44
2022/12/20 04:28:47;;;;;;;6.43;2.83;;;;;;;;;;4988509;28;20085;-44
2022/12/20 04:31:13;;;;;;;4.43;2.38;;;;;;;;;;4987096;28;20037;-45
2022/12/20 04:33:38;;;;;;;4.68;2.50;;;;;;;;;;4986455;28;20046;-45
2022/12/20 04:36:04;;;;;;;5.13;2.67;;;;;;;;;;4985994;28;20423;-44
2022/12/20 04:38:30;;;;;;;5.20;2.10;;;;;;;;;;4985182;28;20042;-44
2022/12/20 04:40:55;;;;;;;3.72;2.20;;;;;;;;;;4987218;28;20030;-45
2022/12/20 04:43:22;;;;;;;8.63;2.30;;;;;;;;;;4988886;28;20057;-47
2022/12/20 04:45:49;;;;;;;6.53;2.13;;;;;;;;;;4989154;28;20033;-44
2022/12/20 04:48:14;;;;;;;5.40;2.10;;;;;;;;;;4988268;28;20050;-45
2022/12/20 04:50:40;;;;;;;6.05;2.42;;;;;;;;;;4986141;28;20533;-44
2022/12/20 04:55:50;;;;;;;7.05;2.20;;;;;;;;;;4986094;28;20061;-45
2022/12/20 04:58:15;;;;;;;5.07;2.22;;;;;;;;;;4987694;28;20407;-44
2022/12/20 05:00:41;;;;;;;3.28;2.15;;;;;;;;;;4988097;28;20811;-44
2022/12/20 05:03:06;;;;;;;4.28;2.40;;;;;;;;;;4988433;28;20039;-45
2022/12/20 05:05:32;;;;;;;3.85;2.40;;;;;;;;;;4987785;28;20049;-43
2022/12/20 05:07:57;;;;;;;4.32;2.10;;;;;;;;;;4988774;28;20046;-45
2022/12/20 05:10:23;;;;;;;3.47;2.08;;;;;;;;;;4984269;28;20467;-45
2022/12/20 05:12:48;;;;;;;4.93;2.50;;;;;;;;;;4984659;28;20096;-45
2022/12/20 05:15:14;;;;;;;6.57;2.30;;;;;;;;;;4985426;28;20061;-45
2022/12/20 05:17:39;;;;;;;9.23;2.45;;;;;;;;;;4988426;28;20039;-44
2022/12/20 05:20:06;;;;;;;8.18;2.10;;;;;;;;;;4987136;28;20054;-44
2022/12/20 05:28:00;;;;;;;3.17;2.00;;;;;;;;;;4984499;28;20057;-46
2022/12/20 05:30:25;;;;;;;2.83;2.00;;;;;;;;;;4986018;28;20026;-44
2022/12/20 05:32:51;;;;;;;4.03;2.30;;;;;;;;;;4984894;28;20043;-44
2022/12/20 05:35:16;;;;;;;2.05;1.85;;;;;;;;;;4985251;28;20018;-44
2022/12/20 05:37:42;;;;;;;4.15;1.98;;;;;;;;;;4989205;28;20411;-44
2022/12/20 05:40:08;;;;;;;6.00;1.90;;;;;;;;;;4984262;28;20109;-46
2022/12/20 05:42:33;;;;;;;3.65;2.05;;;;;;;;;;4984853;28;20038;-48
2022/12/20 05:45:00;;;;;;;4.35;2.15;;;;;;;;;;4982476;28;20450;-45
2022/12/20 05:47:25;;;;;;;5.63;2.30;;;;;;;;;;4986811;28;20046;-44
2022/12/20 05:49:51;;;;;;;4.40;2.60;;;;;;;;;;4989351;28;20085;-46
2022/12/20 05:52:16;;;;;;;3.75;2.10;;;;;;;;;;4985414;28;20376;-44
2022/12/20 05:54:41;;;;;;;3.83;2.25;;;;;;;;;;4985870;28;20037;-44
2022/12/20 05:57:07;;;;;;;2.70;2.10;;;;;;;;;;4984028;28;20403;-44
2022/12/20 05:59:32;;;;;;;7.10;2.78;;;;;;;;;;4982625;28;20023;-44
2022/12/20 06:01:58;;;;;;;3.15;2.63;;;;;;;;;;4980143;28;20054;-44
2022/12/20 06:04:23;;;;;;;2.55;2.28;;;;;;;;;;4982010;28;20026;-46
2022/12/20 06:06:48;;;;;;;4.05;2.60;;;;;;;;;;4982584;28;20549;-44
2022/12/20 06:09:14;;;;;;;3.80;2.42;;;;;;;;;;4986585;28;20030;-44
2022/12/20 06:11:39;;;;;;;3.85;2.50;;;;;;;;;;4985715;28;20399;-44
2022/12/20 06:14:04;;;;;;;4.00;2.00;;;;;;;;;;4984610;28;20026;-44
2022/12/20 06:16:30;;;;;;;4.70;2.33;;;;;;;;;;4987999;28;20041;-44
2022/12/20 06:18:55;;;;;;;5.47;2.30;;;;;;;;;;4987276;28;20046;-44
2022/12/20 06:21:21;;;;;;;6.07;2.35;;;;;;;;;;4984815;28;20500;-45
2022/12/20 06:23:47;;;;;;;5.70;2.20;;;;;;;;;;4990502;28;20045;-44
2022/12/20 06:26:12;;;;;;;4.22;1.92;;;;;;;;;;4987292;28;20038;-44
2022/12/20 06:28:41;;;;;;;8.65;2.50;;;;;;;;;;4987580;28;20512;-44
2022/12/20 06:31:08;;;;;;;3.75;2.30;;;;;;;;;;4986485;28;21520;-45
2022/12/20 06:33:34;;;;;;;3.40;2.40;;;;;;;;;;4984241;28;20077;-44
2022/12/20 06:36:00;;;;;;;5.82;2.53;;;;;;;;;;4992395;28;20111;-45
2022/12/20 06:38:25;;;;;;;8.80;2.75;;;;;;;;;;4987513;28;20476;-45
2022/12/20 06:40:50;;;;;;;5.00;2.08;;;;;;;;;;4991833;28;20039;-44
2022/12/20 06:43:16;;;;;;;2.33;2.03;;;;;;;;;;4990584;28;20037;-43
2022/12/20 06:45:41;;;;;;;4.38;2.20;;;;;;;;;;4987254;28;20030;-44
2022/12/20 06:48:07;;;;;;;5.03;2.22;;;;;;;;;;4987071;28;20043;-42
2022/12/20 06:50:32;;;;;;;6.43;2.53;;;;;;;;;;4990142;28;20050;-43
2022/12/20 06:52:57;;;;;;;4.03;2.35;;;;;;;;;;4991010;28;20066;-44
2022/12/20 06:55:23;;;;;;;4.38;2.70;;;;;;;;;;4989300;28;20058;-45
2022/12/20 06:57:48;;;;;;;5.97;2.90;;;;;;;;;;4987894;28;20065;-43
2022/12/20 07:00:14;;;;;;;4.60;2.72;;;;;;;;;;4990753;28;20037;-43
2022/12/20 07:02:40;;;;;;;6.47;3.05;;;;;;;;;;4989925;28;20034;-45
2022/12/20 07:05:05;;;;;;;9.20;2.88;;;;;;;;;;4989432;28;20034;-43
2022/12/20 07:07:31;;;;;;;5.72;2.95;;;;;;;;;;4986795;28;20488;-45
2022/12/20 07:09:56;;;;;;;5.18;2.42;;;;;;;;;;4992300;28;20467;-45
2022/12/20 07:12:21;;;;;;;4.57;2.40;;;;;;;;;;4990943;28;20038;-42
2022/12/20 07:14:48;;;;;;;6.43;2.47;;;;;;;;;;4987987;28;20046;-42
2022/12/20 07:17:13;;;;;;;4.05;2.75;;;;;;;;;;4989017;28;20077;-43
2022/12/20 07:19:39;;;;;;;5.00;2.78;;;;;;;;;;4989522;28;20495;-43
2022/12/20 07:22:04;;;;;;;2.75;2.50;;;;;;;;;;4987076;28;20047;-43
2022/12/20 07:24:30;;;;;;;6.68;3.50;;;;;;;;;;4990314;28;20105;-44
2022/12/20 07:26:56;;;;;;;4.63;3.15;;;;;;;;;;4987943;28;20541;-43
2022/12/20 07:29:21;;;;;;;5.75;3.00;;;;;;;;;;4985489;28;20034;-43
2022/12/20 07:31:47;;;;;;;7.53;2.85;;;;;;;;;;4986177;28;20050;-43
2022/12/20 07:34:12;;;;;;;6.20;3.00;;;;;;;;;;4990204;28;20033;-43
2022/12/20 07:36:38;;;;;;;6.00;2.38;;;;;;;;;;4987274;28;20034;-43
2022/12/20 07:39:03;;;;;;;4.70;2.60;;;;;;;;;;4983326;28;20380;-43
2022/12/20 07:41:29;;;;;;;6.45;2.50;;;;;;;;;;4985738;28;20041;-43
2022/12/20 07:43:54;;;;;;;6.00;2.55;;;;;;;;;;4987621;28;20479;-43
2022/12/20 07:46:20;;;;;;;4.20;2.85;;;;;;;;;;4981832;28;20137;-43
2022/12/20 07:48:45;;;;;;;4.35;2.50;;;;;;;;;;4983780;28;20046;-44
2022/12/20 07:51:16;;;;;;;4.40;2.97;;;;;;;;;;4980361;28;20034;-44
2022/12/20 07:53:47;;;;;;;9.55;4.13;;;;;;;;;;4985267;28;20054;-43
2022/12/20 07:56:14;;;;;;;13.80;5.10;;;;;;;;;;4986946;28;20057;-44
2022/12/20 07:58:40;;;;;;;15.65;8.75;;;;;;;;;;4989412;28;20034;-45
2022/12/20 08:01:07;;;;;;;26.77;20.10;;;;;;;;;;4981933;28;20041;-43
2022/12/20 08:03:41;;;;;;;19.38;11.82;;;;;;;;;;4974269;28;20439;-42
2022/12/20 08:06:07;;;;;;;7.78;4.05;;;;;;;;;;4980785;28;20061;-43
2022/12/20 08:08:37;;;;;;;5.25;3.22;;;;;;;;;;4984894;28;20469;-43
2022/12/20 08:11:03;;;;;;;11.60;4.18;;;;;;;;;;4984338;28;20037;-43
2022/12/20 08:13:30;;;;;;;12.75;6.43;;;;;;;;;;4982591;28;20467;-45
2022/12/20 08:15:56;;;;;;;11.65;6.53;;;;;;;;;;4980339;28;20906;-43
2022/12/20 08:18:21;;;;;;;11.30;5.88;;;;;;;;;;4981785;28;20053;-41
2022/12/20 08:20:46;;;;;;;17.00;7.57;;;;;;;;;;4977470;28;20029;-43
2022/12/20 08:23:12;;;;;;;9.98;5.93;;;;;;;;;;4979938;28;20494;-44
2022/12/20 08:25:37;;;;;;;13.32;5.63;;;;;;;;;;4980131;28;21338;-43
2022/12/20 08:28:03;;;;;;;14.20;5.90;;;;;;;;;;4979527;28;20042;-43
2022/12/20 08:30:28;;;;;;;11.25;4.35;;;;;;;;;;4980058;28;20041;-44
2022/12/20 08:32:55;;;;;;;12.98;4.30;;;;;;;;;;4979448;28;20068;-43
2022/12/20 08:35:21;;;;;;;13.77;4.68;;;;;;;;;;4982884;28;20398;-42
2022/12/20 08:37:47;;;;;;;9.85;4.80;;;;;;;;;;4983560;28;20142;-43
2022/12/20 08:40:13;;;;;;;21.52;8.82;;;;;;;;;;4986018;28;20125;-43
2022/12/20 08:42:39;;;;;;;11.30;5.43;;;;;;;;;;4983694;28;20383;-43
2022/12/20 08:45:04;;;;;;;11.15;4.82;;;;;;;;;;4987365;28;20037;-43
2022/12/20 08:47:30;;;;;;;12.68;6.13;;;;;;;;;;4986096;28;20093;-46
2022/12/20 08:49:55;;;;;;;11.23;5.70;;;;;;;;;;4986874;28;20057;-44
2022/12/20 08:52:20;;;;;;;11.18;5.22;;;;;;;;;;4982458;28;20030;-42
2022/12/20 08:54:46;;;;;;;9.82;4.78;;;;;;;;;;4979067;28;20474;-43
2022/12/20 08:57:12;;;;;;;8.55;5.07;;;;;;;;;;4986380;28;20388;-43
2022/12/20 08:59:39;;;;;;;11.48;5.57;;;;;;;;;;4987925;28;20054;-45
2022/12/20 09:02:05;;;;;;;9.57;5.25;;;;;;;;;;4982143;28;20096;-43
2022/12/20 09:04:30;;;;;;;14.15;5.35;;;;;;;;;;4986807;28;20418;-44
2022/12/20 09:06:56;;;;;;;4.80;2.97;;;;;;;;;;4982911;28;20097;-42
2022/12/20 09:09:21;;;;;;;12.48;4.45;;;;;;;;;;4984413;28;20044;-42
2022/12/20 09:11:47;;;;;;;7.03;3.15;;;;;;;;;;4986488;28;20066;-41
2022/12/20 09:14:12;;;;;;;7.30;3.95;;;;;;;;;;4987296;28;20081;-43
2022/12/20 09:16:38;;;;;;;9.00;3.95;;;;;;;;;;4986970;28;20038;-41
2022/12/20 09:19:04;;;;;;;7.20;3.92;;;;;;;;;;4988228;28;20026;-42
2022/12/20 09:21:29;;;;;;;10.07;3.40;;;;;;;;;;4982983;28;20053;-41
2022/12/20 09:23:55;;;;;;;2.92;2.60;;;;;;;;;;4988369;28;20018;-42
2022/12/20 09:26:22;;;;;;;5.60;2.78;;;;;;;;;;4985456;28;20054;-42
2022/12/20 09:28:48;;;;;;;10.65;2.85;;;;;;;;;;4989156;28;20076;-42
2022/12/20 09:31:16;;;;;;;7.93;2.40;;;;;;;;;;4984925;28;20073;-42
2022/12/20 09:33:42;;;;;;;7.85;3.28;;;;;;;;;;4986349;28;20039;-42
2022/12/20 09:36:16;;;;;;;8.93;2.80;;;;;;;;;;4985454;28;20097;-42
2022/12/20 09:38:42;;;;;;;6.65;2.45;;;;;;;;;;4982560;28;21687;-43
2022/12/20 09:41:26;;;;;;;8.73;2.90;;;;;;;;;;4986821;28;20023;-42
2022/12/20 09:43:52;;;;;;;8.70;2.95;;;;;;;;;;4986908;28;20043;-43
2022/12/20 09:46:17;;;;;;;5.68;2.88;;;;;;;;;;4988843;28;20129;-41
2022/12/20 09:48:44;;;;;;;5.35;2.90;;;;;;;;;;4985499;28;20048;-42
2022/12/20 09:51:09;;;;;;;6.45;3.47;;;;;;;;;;4989278;28;20034;-42
2022/12/20 09:53:46;;;;;;;10.18;4.80;;;;;;;;;;4990952;28;20061;-44
2022/12/20 09:56:25;;;;;;;20.23;10.35;;;;;;;;;;4992380;28;20495;-41
2022/12/20 09:59:03;;;;;;;11.30;6.03;;;;;;;;;;4989814;28;20074;-41
2022/12/20 10:01:32;;;;;;;11.35;5.45;;;;;;;;;;4989136;28;20538;-42
2022/12/20 10:04:01;;;;;;;12.13;4.55;;;;;;;;;;4988911;28;20046;-42
2022/12/20 10:06:51;;;;;;;6.10;4.30;;;;;;;;;;4985519;28;20018;-46
2022/12/20 10:09:23;;;;;;;12.27;4.28;;;;;;;;;;4990266;28;20030;-42
2022/12/20 10:11:51;;;;;;;8.85;4.45;;;;;;;;;;4989891;28;20525;-42
2022/12/20 10:14:54;;;;;;;7.45;3.58;;;;;;;;;;4990273;28;20038;-42
2022/12/20 10:17:33;;;;;;;8.13;3.58;;;;;;;;;;4937632;28;20075;-42
2022/12/20 10:20:10;;;;;;;3.95;3.30;;;;;;;;;;4949088;28;20101;-43
2022/12/20 10:22:48;;;;;;;4.32;2.83;;;;;;;;;;4946267;28;20046;-43
2022/12/20 10:25:18;;;;;;;9.60;2.85;;;;;;;;;;4948223;28;20499;-43
2022/12/20 10:27:45;;;;;;;5.75;2.90;;;;;;;;;;4945690;28;20524;-43
2022/12/20 10:30:22;;;;;;;8.43;2.80;;;;;;;;;;4948422;28;20091;-42
2022/12/20 10:32:50;;;;;;;6.72;3.30;;;;;;;;;;4943847;28;20480;-42
2022/12/20 10:35:26;;;;;;;11.30;3.78;;;;;;;;;;4947158;28;20034;-42
2022/12/20 10:38:11;;;;;;;12.32;4.45;;;;;;;;;;4947896;28;20122;-42
2022/12/20 10:40:46;;;;;;;8.80;5.15;;;;;;;;;;4948295;28;20053;-47
2022/12/20 10:43:22;;;;;;;16.98;8.52;;;;;;;;;;4928820;28;20039;-42
2022/12/20 10:46:15;;;;;;;12.45;7.70;;;;;;;;;;4948522;28;20110;-44
2022/12/20 10:48:42;;;;;;;13.10;7.60;;;;;;;;;;4947333;28;20058;-42
2022/12/20 10:51:07;;;;;;;13.15;7.97;;;;;;;;;;4948909;28;20646;-41
2022/12/20 10:53:33;;;;;;;8.65;3.30;;;;;;;;;;4979698;28;20121;-42
2022/12/20 10:56:22;;;;;;;7.13;3.55;;;;;;;;;;4992725;28;20117;-45
2022/12/20 10:58:53;;;;;;;7.82;3.13;;;;;;;;;;4988442;28;20039;-42
2022/12/20 11:01:21;;;;;;;9.10;4.00;;;;;;;;;;4987144;28;20019;-42
2022/12/20 11:03:58;;;;;;;6.35;3.25;;;;;;;;;;4985641;28;20045;-48
2022/12/20 11:06:43;;;;;;;9.52;3.05;;;;;;;;;;4989579;28;20573;-42
2022/12/20 11:09:30;;;;;;;7.55;3.63;;;;;;;;;;4986732;28;20043;-41
2022/12/20 11:12:06;;;;;;;5.82;3.03;;;;;;;;;;4982070;28;20129;-44
2022/12/20 11:14:34;;;;;;;9.88;3.53;;;;;;;;;;4983588;28;20533;-44
2022/12/20 11:17:06;;;;;;;6.32;2.67;;;;;;;;;;4979653;28;20042;-42
2022/12/20 11:19:56;;;;;;;10.65;2.75;;;;;;;;;;4985371;28;20030;-43
2022/12/20 11:22:31;;;;;;;5.80;2.95;;;;;;;;;;4982178;28;20104;-41
2022/12/20 11:25:17;;;;;;;7.68;2.90;;;;;;;;;;4983375;28;20113;-42
2022/12/20 11:28:02;;;;;;;9.80;3.10;;;;;;;;;;4981979;28;20042;-43
2022/12/20 11:30:47;;;;;;;5.30;2.50;;;;;;;;;;4976094;28;20038;-42
2022/12/20 11:33:12;;;;;;;11.73;3.13;;;;;;;;;;4990571;28;20053;-41
2022/12/20 11:35:47;;;;;;;11.18;3.13;;;;;;;;;;4980356;28;20026;-41
2022/12/20 11:38:20;;;;;;;6.35;2.30;;;;;;;;;;4990078;28;20062;-41
2022/12/20 11:41:01;;;;;;;5.28;1.95;;;;;;;;;;4983351;28;20037;-41
2022/12/20 11:43:48;;;;;;;3.63;1.70;;;;;;;;;;4985594;28;20050;-47
2022/12/20 11:46:16;;;;;;;4.22;1.70;;;;;;;;;;4986534;28;20026;-46
2022/12/20 11:49:07;;;;;;;11.73;2.35;;;;;;;;;;4983898;28;20128;-43
2022/12/20 11:51:45;;;;;;;10.25;2.05;;;;;;;;;;4986854;28;20027;-42
2022/12/20 11:54:13;;;;;;;4.80;1.60;;;;;;;;;;4981699;28;20054;-41
2022/12/20 11:56:41;;;;;;;5.43;1.70;;;;;;;;;;4980521;28;20047;-42
2022/12/20 11:59:28;;;;;;;8.60;2.15;;;;;;;;;;4982917;28;20034;-50
2022/12/20 12:02:37;;;;;;;9.55;2.08;;;;;;;;;;4985729;28;20093;-43
2022/12/20 12:05:05;;;;;;;7.20;1.77;;;;;;;;;;4985781;28;21933;-40
2022/12/20 12:07:35;;;;;;;7.70;2.22;;;;;;;;;;4985622;28;20046;-41
2022/12/20 12:10:21;;;;;;;8.73;1.63;;;;;;;;;;4982955;28;20042;-42
2022/12/20 12:12:53;;;;;;;16.73;2.40;;;;;;;;;;4984795;28;20038;-44
2022/12/20 12:15:37;;;;;;;9.43;2.03;;;;;;;;;;4984909;28;20026;-44
2022/12/20 12:18:10;;;;;;;7.53;1.52;;;;;;;;;;4985325;28;20126;-42
2022/12/20 12:21:09;;;;;;;6.95;1.90;;;;;;;;;;4985793;28;20030;-45
2022/12/20 12:23:43;;;;;;;4.22;1.67;;;;;;;;;;4981455;28;20109;-43
2022/12/20 12:26:23;;;;;;;8.60;2.10;;;;;;;;;;4985213;28;20034;-47
2022/12/20 12:29:00;;;;;;;9.85;2.22;;;;;;;;;;4980302;28;20046;-44
2022/12/20 12:31:36;;;;;;;10.88;2.13;;;;;;;;;;4981188;28;20038;-42
2022/12/20 12:34:24;;;;;;;3.55;1.75;;;;;;;;;;4981359;28;20042;-46
2022/12/20 12:37:04;;;;;;;10.77;2.15;;;;;;;;;;4984004;28;20104;-43
2022/12/20 12:39:57;;;;;;;4.82;1.73;;;;;;;;;;4972025;28;21452;-44
2022/12/20 12:42:38;;;;;;;12.73;2.20;;;;;;;;;;4985830;28;20454;-43
2022/12/20 12:45:13;;;;;;;5.93;1.60;;;;;;;;;;4977951;28;20038;-46
2022/12/20 12:48:03;;;;;;;9.77;2.08;;;;;;;;;;4976721;28;20046;-44
2022/12/20 12:50:41;;;;;;;5.05;1.92;;;;;;;;;;4980513;28;20050;-43
2022/12/20 12:53:14;;;;;;;7.93;1.98;;;;;;;;;;4983493;28;20042;-44
2022/12/20 12:55:49;;;;;;;10.00;2.80;;;;;;;;;;4980515;28;20042;-43
2022/12/20 12:58:23;;;;;;;8.52;2.13;;;;;;;;;;4975110;28;20092;-44
2022/12/20 13:00:53;;;;;;;2.67;1.63;;;;;;;;;;4979285;28;20399;-43
2022/12/20 13:03:36;;;;;;;11.82;2.05;;;;;;;;;;4985364;28;20488;-44
2022/12/20 13:06:29;;;;;;;8.18;2.03;;;;;;;;;;4983555;28;20069;-47
2022/12/20 13:08:57;;;;;;;6.45;2.28;;;;;;;;;;4983629;28;20042;-48
2022/12/20 13:11:30;;;;;;;9.27;1.70;;;;;;;;;;4984008;28;20026;-43
2022/12/20 13:14:17;;;;;;;6.53;2.00;;;;;;;;;;4983355;28;20042;-45
2022/12/20 13:16:44;;;;;;;8.05;1.98;;;;;;;;;;4981015;28;20038;-45
2022/12/20 13:19:18;;;;;;;8.38;1.70;;;;;;;;;;4985989;28;20089;-44
2022/12/20 13:21:47;;;;;;;4.72;1.70;;;;;;;;;;4981459;28;20181;-44
2022/12/20 13:24:34;;;;;;;7.88;1.58;;;;;;;;;;4982477;28;20039;-44
2022/12/20 13:27:01;;;;;;;5.38;1.75;;;;;;;;;;4986967;28;20129;-43
2022/12/20 13:29:32;;;;;;;7.22;2.33;;;;;;;;;;4987338;28;20467;-43
2022/12/20 13:31:57;;;;;;;6.68;2.10;;;;;;;;;;4984707;28;20050;-43
2022/12/20 13:34:53;;;;;;;8.85;2.15;;;;;;;;;;4987528;28;20053;-44
2022/12/20 13:37:52;;;;;;;6.57;1.92;;;;;;;;;;4984798;28;20035;-46
2022/12/20 13:40:24;;;;;;;5.68;2.00;;;;;;;;;;4985269;28;20105;-43
2022/12/20 13:42:53;;;;;;;8.43;2.00;;;;;;;;;;4990475;28;20049;-43
2022/12/20 13:45:19;;;;;;;6.53;1.48;;;;;;;;;;4989150;28;20022;-45
2022/12/20 13:47:50;;;;;;;4.45;1.88;;;;;;;;;;4985613;28;20518;-43
2022/12/20 13:50:54;;;;;;;8.60;1.80;;;;;;;;;;5016552;28;20518;-43
2022/12/20 13:53:22;;;;;;;7.38;1.75;;;;;;;;;;4986954;28;20519;-44
2022/12/20 13:55:49;;;;;;;8.02;2.40;;;;;;;;;;4985881;28;20096;-43
2022/12/20 13:58:30;;;;;;;6.10;1.70;;;;;;;;;;4982153;28;20035;-43
2022/12/20 14:01:09;;;;;;;12.32;2.30;;;;;;;;;;4983367;28;20493;-46
2022/12/20 14:03:40;;;;;;;8.82;2.40;;;;;;;;;;4983880;28;20049;-44
2022/12/20 14:06:09;;;;;;;3.87;1.63;;;;;;;;;;4968534;28;20034;-44
2022/12/20 14:08:39;;;;;;;6.20;1.60;;;;;;;;;;4985686;28;20469;-44
2022/12/20 14:11:12;;;;;;;7.93;1.90;;;;;;;;;;4987513;28;20499;-44
2022/12/20 14:13:38;;;;;;;6.13;1.77;;;;;;;;;;4986060;28;20039;-44
2022/12/20 14:16:15;;;;;;;9.48;2.10;;;;;;;;;;4986152;28;20034;-43
2022/12/20 14:18:41;;;;;;;12.18;3.05;;;;;;;;;;4987330;28;20046;-45
2022/12/20 14:21:08;;;;;;;5.82;2.05;;;;;;;;;;4985002;28;20030;-43
2022/12/20 14:23:40;;;;;;;6.80;2.03;;;;;;;;;;4985978;28;20066;-43
2022/12/20 14:26:11;;;;;;;8.00;2.33;;;;;;;;;;4986890;28;20026;-43
2022/12/20 14:28:45;;;;;;;7.80;1.98;;;;;;;;;;4989704;28;20043;-44
2022/12/20 14:31:32;;;;;;;8.05;1.73;;;;;;;;;;4987563;28;20077;-46
2022/12/20 14:34:15;;;;;;;9.02;1.88;;;;;;;;;;4984498;28;20042;-44
2022/12/20 14:36:43;;;;;;;8.20;2.05;;;;;;;;;;4981879;28;20102;-44
2022/12/20 14:39:33;;;;;;;4.93;1.65;;;;;;;;;;4985284;28;20034;-44
2022/12/20 14:42:02;;;;;;;14.73;2.08;;;;;;;;;;4987300;28;20538;-44
2022/12/20 14:44:29;;;;;;;9.25;2.20;;;;;;;;;;4989937;28;20146;-43
2022/12/20 14:47:02;;;;;;;8.10;1.98;;;;;;;;;;4989847;28;20042;-44
2022/12/20 14:49:30;;;;;;;5.53;2.20;;;;;;;;;;4989434;28;20031;-43
2022/12/20 14:52:11;;;;;;;4.60;2.28;;;;;;;;;;4986582;28;20043;-44
2022/12/20 14:54:55;;;;;;;11.07;2.75;;;;;;;;;;4987200;28;20045;-43
2022/12/20 14:57:25;;;;;;;9.73;3.17;;;;;;;;;;4991640;28;20109;-43
2022/12/20 15:00:01;;;;;;;7.22;2.80;;;;;;;;;;4987257;28;20046;-44
2022/12/20 15:02:34;;;;;;;10.25;2.20;;;;;;;;;;4985414;28;20663;-43
2022/12/20 15:05:07;;;;;;;13.73;2.72;;;;;;;;;;4989143;28;20108;-43
2022/12/20 15:07:32;;;;;;;6.82;2.30;;;;;;;;;;4983500;28;20065;-43